Terminal Aerodrome Forecast
Issued by NWS

Home | Current Version | Previous Version | Text Only | Print | Product List | Glossary On
Versions: 1 2 3 4 5 6 7 8 9 10 11 12 13 14 15 16 17
000
FTUS43 KAPX 201146
TAFPLN
TAF
KPLN 201146Z 2012/2112 00000KT 6SM BR OVC008
     FM201400 13004KT P6SM BKN008
     FM201600 13005KT P6SM BKN025
     FM201700 14007KT P6SM BKN050
     FM210100 VRB03KT P6SM BKN080
     FM210500 VRB03KT P6SM VCSH OVC060=

USA.gov is the U.S. government's official web portal to all federal, state and local government web resources and services.